Time;durP1;ratioP1;P1;durP2;ratioP2;P2;SDS_P1;SDS_P2;PMS_P1;PMS_P2;Temp;Humidity;BMP_temperature;BMP_pressure;BME280_temperature;BME280_humidity;BME280_pressure;Samples;Min_cycle;Max_cycle;Signal;HPM_P1;HPM_P2
2022/03/06 00:00:31;;;;;;;23.95;14.65;;;5.40;89.50;;;;;;6183643;23;20092;-84
2022/03/06 00:02:57;;;;;;;25.70;15.25;;;5.40;90.00;;;;;;6185545;23;20001;-86
2022/03/06 00:05:25;;;;;;;25.25;15.13;;;5.40;89.70;;;;;;6186054;23;19997;-86
2022/03/06 00:07:51;;;;;;;26.80;15.40;;;5.30;90.00;;;;;;6185255;23;20039;-86
2022/03/06 00:10:17;;;;;;;28.55;15.57;;;5.30;90.20;;;;;;6186978;23;20009;-85
2022/03/06 00:12:43;;;;;;;28.33;15.35;;;5.30;89.90;;;;;;6136806;23;20005;-86
2022/03/06 00:15:11;;;;;;;26.23;14.77;;;5.30;90.00;;;;;;6160654;23;20001;-83
2022/03/06 00:17:37;;;;;;;28.17;15.65;;;5.20;90.00;;;;;;6185433;23;20061;-83
2022/03/06 00:20:08;;;;;;;25.63;15.40;;;5.10;90.10;;;;;;6185307;23;20063;-83
2022/03/06 00:22:43;;;;;;;24.83;14.55;;;5.10;90.10;;;;;;6162019;23;20423;-84
2022/03/06 00:25:12;;;;;;;29.00;16.58;;;5.10;90.20;;;;;;6185465;23;20084;-84
2022/03/06 00:27:40;;;;;;;28.63;14.45;;;5.10;90.40;;;;;;6161267;23;20011;-85
2022/03/06 00:30:09;;;;;;;24.02;14.50;;;5.00;90.40;;;;;;6185256;23;20001;-84
2022/03/06 00:32:35;;;;;;;26.92;15.48;;;5.00;90.30;;;;;;6161727;23;20005;-84
2022/03/06 00:35:18;;;;;;;27.23;15.07;;;4.90;90.30;;;;;;6184883;23;20080;-84
2022/03/06 00:37:44;;;;;;;25.10;15.13;;;4.90;90.70;;;;;;6160816;23;20001;-83
2022/03/06 00:40:10;;;;;;;24.10;14.30;;;4.90;90.70;;;;;;6186754;23;20005;-84
2022/03/06 00:42:36;;;;;;;27.13;14.48;;;4.90;90.90;;;;;;6185453;23;20016;-84
2022/03/06 00:45:03;;;;;;;24.40;14.35;;;4.80;90.80;;;;;;6184838;23;20388;-84
2022/03/06 00:47:45;;;;;;;26.27;14.93;;;4.80;91.10;;;;;;6185543;23;20004;-85
2022/03/06 00:50:11;;;;;;;27.80;14.82;;;4.80;91.20;;;;;;6162265;23;20016;-85
2022/03/06 00:52:39;;;;;;;23.20;13.70;;;4.70;91.20;;;;;;6185341;23;20039;-85
2022/03/06 00:55:06;;;;;;;25.60;14.65;;;4.70;91.40;;;;;;6185061;23;20412;-85
2022/03/06 00:57:31;;;;;;;25.00;14.63;;;4.70;91.20;;;;;;6185374;23;20002;-85
2022/03/06 00:59:57;;;;;;;25.88;14.90;;;4.60;91.30;;;;;;6159873;23;20092;-86
2022/03/06 01:02:30;;;;;;;28.42;15.23;;;4.60;91.40;;;;;;6185173;23;20005;-85
2022/03/06 01:05:06;;;;;;;27.15;14.35;;;4.60;91.50;;;;;;6185292;23;20001;-85
2022/03/06 01:07:33;;;;;;;26.35;15.07;;;4.50;91.60;;;;;;6160763;23;20005;-85
2022/03/06 01:09:59;;;;;;;25.70;14.93;;;4.50;91.90;;;;;;6160323;23;20411;-85
2022/03/06 01:12:25;;;;;;;23.73;14.55;;;4.40;91.90;;;;;;6184719;23;19997;-85
2022/03/06 01:14:51;;;;;;;23.27;13.80;;;4.40;91.70;;;;;;6185024;23;19997;-85
2022/03/06 01:17:20;;;;;;;28.05;14.95;;;4.40;91.70;;;;;;6184543;23;20088;-84
2022/03/06 01:19:49;;;;;;;25.70;14.50;;;4.30;91.90;;;;;;6184995;23;20011;-85
2022/03/06 01:22:15;;;;;;;26.30;14.27;;;4.30;92.00;;;;;;6184985;23;20001;-85
2022/03/06 01:24:41;;;;;;;24.67;14.43;;;4.30;92.20;;;;;;6160176;23;20005;-86
2022/03/06 01:27:26;;;;;;;22.45;13.73;;;4.30;92.20;;;;;;6184788;23;20043;-85
2022/03/06 01:29:54;;;;;;;25.90;14.35;;;4.30;92.40;;;;;;6185032;23;20005;-84
2022/03/06 01:32:20;;;;;;;23.80;13.82;;;4.20;92.40;;;;;;6184522;23;20471;-84
2022/03/06 01:34:48;;;;;;;22.15;12.95;;;4.20;92.50;;;;;;6183557;23;20106;-84
2022/03/06 01:37:14;;;;;;;22.30;13.63;;;4.20;92.50;;;;;;6160505;23;20079;-84
2022/03/06 01:39:42;;;;;;;22.85;13.63;;;4.10;92.90;;;;;;6184315;23;20009;-84
2022/03/06 01:42:08;;;;;;;24.23;13.48;;;4.10;93.00;;;;;;6159723;23;20009;-85
2022/03/06 01:44:43;;;;;;;24.00;14.32;;;4.10;93.10;;;;;;6160256;23;20012;-84
2022/03/06 01:47:08;;;;;;;26.63;14.68;;;4.10;93.10;;;;;;6184662;23;20001;-85
2022/03/06 01:49:34;;;;;;;23.40;13.63;;;4.10;93.30;;;;;;6159928;23;20013;-84
2022/03/06 01:52:12;;;;;;;21.50;12.63;;;4.10;93.10;;;;;;6135509;23;20080;-84
2022/03/06 01:54:38;;;;;;;24.85;13.95;;;4.00;93.20;;;;;;6162553;23;20005;-84
2022/03/06 01:57:06;;;;;;;24.10;13.40;;;4.00;93.20;;;;;;6184469;23;20080;-86
2022/03/06 01:59:34;;;;;;;21.25;13.00;;;4.00;93.40;;;;;;6184576;23;20036;-84
2022/03/06 02:02:00;;;;;;;23.35;13.18;;;4.00;93.20;;;;;;6184675;23;20381;-84
2022/03/06 02:04:26;;;;;;;21.75;12.80;;;3.90;93.50;;;;;;6184414;23;20032;-85
2022/03/06 02:06:54;;;;;;;22.45;13.30;;;3.90;93.50;;;;;;6184613;23;19997;-84
2022/03/06 02:09:20;;;;;;;25.15;13.50;;;3.90;93.60;;;;;;6185918;23;20001;-84
2022/03/06 02:12:18;;;;;;;22.35;14.13;;;3.80;93.30;;;;;;6184702;23;20016;-84
2022/03/06 02:14:32;;;;;;;25.02;13.10;;;3.80;93.60;;;;;;6185525;23;20454;-84
2022/03/06 02:16:57;;;;;;;24.20;13.05;;;3.80;93.80;;;;;;6159415;23;20029;-84
2022/03/06 02:19:23;;;;;;;22.52;13.25;;;3.80;93.80;;;;;;6183949;23;20017;-84
2022/03/06 02:21:49;;;;;;;19.23;12.23;;;3.70;93.90;;;;;;6184268;23;20009;-84
2022/03/06 02:24:15;;;;;;;23.00;13.15;;;3.70;94.00;;;;;;6184265;23;20088;-84
2022/03/06 02:26:40;;;;;;;22.90;12.90;;;3.70;94.00;;;;;;6159352;23;20005;-84
2022/03/06 02:29:06;;;;;;;22.60;12.57;;;3.70;93.80;;;;;;6184707;23;20045;-84
2022/03/06 02:31:36;;;;;;;22.40;12.52;;;3.60;94.20;;;;;;6184190;23;20005;-85
2022/03/06 02:34:02;;;;;;;20.67;12.50;;;3.60;94.10;;;;;;6160559;23;20427;-84
2022/03/06 02:36:31;;;;;;;22.98;12.57;;;3.60;94.10;;;;;;6184193;23;20001;-85
2022/03/06 02:39:00;;;;;;;21.80;13.00;;;3.60;94.50;;;;;;6183774;23;20036;-84
2022/03/06 02:41:33;;;;;;;19.70;12.55;;;3.60;94.50;;;;;;6184322;23;20044;-84
2022/03/06 02:43:59;;;;;;;19.90;12.45;;;3.50;94.10;;;;;;6184574;23;20009;-85
2022/03/06 02:46:25;;;;;;;21.50;13.65;;;3.50;94.40;;;;;;6183895;23;20005;-84
2022/03/06 02:48:51;;;;;;;20.02;11.80;;;3.50;94.30;;;;;;6184319;23;20002;-84
2022/03/06 02:51:16;;;;;;;20.67;12.70;;;3.50;94.10;;;;;;6184994;23;20083;-85
2022/03/06 02:53:44;;;;;;;21.85;12.27;;;3.50;94.00;;;;;;6187454;23;20000;-84
2022/03/06 02:56:12;;;;;;;20.02;12.23;;;3.40;94.50;;;;;;6165870;23;20442;-87
2022/03/06 02:58:39;;;;;;;19.77;12.20;;;3.40;94.80;;;;;;6200787;23;20009;-84
2022/03/06 03:01:09;;;;;;;21.63;12.90;;;3.40;94.80;;;;;;6199341;23;20005;-84
2022/03/06 03:03:56;;;;;;;19.92;12.38;;;3.40;94.80;;;;;;6198267;23;19998;-84
2022/03/06 03:06:25;;;;;;;19.05;12.38;;;3.30;95.20;;;;;;6171170;23;20005;-83
2022/03/06 03:08:56;;;;;;;23.98;13.02;;;3.30;95.30;;;;;;6161816;23;20011;-84
2022/03/06 03:11:22;;;;;;;21.77;12.70;;;3.30;95.20;;;;;;6159491;23;20028;-84
2022/03/06 03:13:47;;;;;;;19.98;12.45;;;3.30;95.40;;;;;;6184000;23;20005;-84
2022/03/06 03:16:13;;;;;;;19.88;12.15;;;3.30;95.40;;;;;;6159174;23;20011;-87
2022/03/06 03:18:39;;;;;;;18.90;12.45;;;3.20;95.50;;;;;;6158764;23;20023;-85
2022/03/06 03:21:07;;;;;;;21.33;12.35;;;3.20;95.50;;;;;;6183588;23;20010;-85
2022/03/06 03:23:43;;;;;;;21.05;12.68;;;3.30;95.70;;;;;;6159502;23;20013;-84
2022/03/06 03:26:09;;;;;;;22.08;12.93;;;3.20;95.50;;;;;;6184373;23;20439;-84
2022/03/06 03:28:37;;;;;;;19.58;11.98;;;3.20;95.80;;;;;;6184447;23;20001;-85
2022/03/06 03:31:06;;;;;;;20.70;13.18;;;3.20;95.70;;;;;;6183888;23;20008;-84
2022/03/06 03:33:31;;;;;;;20.35;13.02;;;3.10;95.80;;;;;;6183809;23;20305;-85
2022/03/06 03:36:02;;;;;;;20.48;12.85;;;3.10;95.90;;;;;;6183186;23;20036;-84
2022/03/06 03:38:38;;;;;;;;;;;;;;;;;;;;;
2022/03/06 03:41:06;;;;;;;19.88;11.90;;;3.10;96.30;;;;;;6185151;23;20083;-84
2022/03/06 03:43:39;;;;;;;21.45;13.00;;;3.00;96.00;;;;;;6159437;23;20033;-85
2022/03/06 03:46:08;;;;;;;19.65;12.63;;;3.00;96.10;;;;;;6183862;23;20006;-84
2022/03/06 03:48:36;;;;;;;23.50;13.13;;;3.00;96.10;;;;;;6159562;23;20379;-84
2022/03/06 03:51:02;;;;;;;26.20;13.77;;;3.00;96.30;;;;;;6158962;23;20009;-84
2022/03/06 03:53:31;;;;;;;22.13;12.63;;;3.00;96.20;;;;;;6183570;23;20001;-84
2022/03/06 03:55:59;;;;;;;20.63;12.30;;;2.90;96.30;;;;;;6183770;23;20012;-84
2022/03/06 03:58:30;;;;;;;19.98;12.35;;;2.90;96.20;;;;;;6185228;23;20056;-84
2022/03/06 04:00:58;;;;;;;22.63;14.13;;;2.90;96.30;;;;;;6183801;23;20487;-84
2022/03/06 04:03:24;;;;;;;20.52;12.43;;;2.90;96.30;;;;;;6183507;23;20005;-84
2022/03/06 04:05:56;;;;;;;19.65;12.20;;;2.90;96.40;;;;;;6183706;23;20009;-84
2022/03/06 04:08:22;;;;;;;19.83;13.27;;;2.80;96.50;;;;;;6158910;23;20005;-84
2022/03/06 04:10:47;;;;;;;20.08;11.85;;;2.80;96.30;;;;;;6183531;23;20445;-85
2022/03/06 04:13:16;;;;;;;21.92;13.50;;;2.80;96.50;;;;;;6183805;23;20001;-84
2022/03/06 04:15:45;;;;;;;20.15;13.10;;;2.80;96.40;;;;;;6183476;23;20128;-84
2022/03/06 04:18:13;;;;;;;22.27;12.07;;;2.70;96.30;;;;;;6183764;23;20013;-84
2022/03/06 04:20:39;;;;;;;20.60;11.80;;;2.70;96.90;;;;;;6158679;23;20431;-84
2022/03/06 04:23:04;;;;;;;19.83;12.05;;;2.70;97.00;;;;;;6158970;23;20059;-83
2022/03/06 04:25:32;;;;;;;24.33;13.02;;;2.70;97.10;;;;;;6183430;23;20032;-84
2022/03/06 04:27:58;;;;;;;19.50;12.45;;;2.70;97.10;;;;;;6159000;23;20005;-84
2022/03/06 04:30:25;;;;;;;17.83;11.90;;;2.70;97.10;;;;;;6183484;23;20009;-85
2022/03/06 04:32:51;;;;;;;19.48;11.70;;;2.60;97.20;;;;;;6183647;23;19997;-85
2022/03/06 04:35:20;;;;;;;19.98;12.85;;;2.60;96.90;;;;;;6159037;23;20117;-84
2022/03/06 04:37:46;;;;;;;23.90;12.68;;;2.60;97.20;;;;;;6183494;23;20029;-84
2022/03/06 04:40:12;;;;;;;19.33;11.95;;;2.60;97.40;;;;;;6183036;23;20009;-84
2022/03/06 04:42:41;;;;;;;20.90;11.77;;;2.60;97.10;;;;;;6183366;23;20491;-84
2022/03/06 04:45:07;;;;;;;19.15;12.63;;;2.60;97.10;;;;;;6183643;23;20085;-84
2022/03/06 04:47:42;;;;;;;19.88;12.32;;;2.50;97.30;;;;;;6184020;23;20076;-85
2022/03/06 04:50:17;;;;;;;20.88;11.80;;;2.50;97.40;;;;;;6185232;23;20021;-84
2022/03/06 04:52:46;;;;;;;20.60;12.57;;;2.50;97.90;;;;;;6185223;23;20009;-84
2022/03/06 04:55:16;;;;;;;18.73;11.85;;;2.50;97.80;;;;;;6185320;23;20029;-84
2022/03/06 04:57:46;;;;;;;20.10;11.98;;;2.50;97.60;;;;;;6159921;23;20005;-84
2022/03/06 05:00:14;;;;;;;20.13;12.60;;;2.50;97.90;;;;;;6186863;23;20005;-84
2022/03/06 05:02:42;;;;;;;20.67;12.57;;;2.40;98.00;;;;;;6184874;23;20466;-84
2022/03/06 05:05:14;;;;;;;18.83;12.10;;;2.40;98.00;;;;;;6185269;23;20428;-84
2022/03/06 05:07:44;;;;;;;20.17;12.55;;;2.40;97.90;;;;;;6184961;23;19997;-84
2022/03/06 05:10:10;;;;;;;19.17;12.73;;;2.40;98.00;;;;;;6186901;23;20001;-84
2022/03/06 05:12:40;;;;;;;20.48;12.38;;;2.40;98.30;;;;;;6184286;23;20012;-84
2022/03/06 05:15:08;;;;;;;19.52;11.98;;;2.30;98.30;;;;;;6185469;23;20095;-84
2022/03/06 05:17:36;;;;;;;18.95;11.73;;;2.30;98.30;;;;;;6184494;23;20017;-85
2022/03/06 05:20:03;;;;;;;21.33;12.40;;;2.30;98.40;;;;;;6185214;23;20024;-84
2022/03/06 05:22:29;;;;;;;18.35;11.70;;;2.30;98.10;;;;;;6184407;23;20005;-86
2022/03/06 05:24:57;;;;;;;20.98;12.43;;;2.30;98.00;;;;;;6135768;23;20417;-84
2022/03/06 05:27:36;;;;;;;19.40;11.32;;;2.30;98.30;;;;;;6161011;23;20005;-83
2022/03/06 05:30:06;;;;;;;20.42;13.38;;;2.20;98.50;;;;;;6161155;23;20041;-83
2022/03/06 05:32:32;;;;;;;19.73;12.17;;;2.20;98.70;;;;;;6184843;23;20482;-84
2022/03/06 05:34:58;;;;;;;17.98;11.90;;;2.20;98.80;;;;;;6184886;23;20001;-84
2022/03/06 05:37:24;;;;;;;21.17;11.98;;;2.20;99.00;;;;;;6160292;23;20029;-83
2022/03/06 05:39:52;;;;;;;19.73;12.65;;;2.20;98.90;;;;;;6184640;23;20008;-84
2022/03/06 05:42:19;;;;;;;18.85;11.98;;;2.10;99.10;;;;;;6185059;23;20008;-85
2022/03/06 05:44:45;;;;;;;17.27;11.75;;;2.10;99.30;;;;;;6184897;23;20009;-84
2022/03/06 05:47:11;;;;;;;18.92;11.18;;;2.10;99.50;;;;;;6184664;23;20371;-84
2022/03/06 05:49:37;;;;;;;21.20;12.88;;;2.10;99.40;;;;;;6184494;23;20016;-84
2022/03/06 05:52:05;;;;;;;17.83;11.30;;;2.10;99.50;;;;;;6184910;23;20076;-84
2022/03/06 05:54:34;;;;;;;18.95;12.20;;;2.10;99.50;;;;;;6184549;23;20438;-85
2022/03/06 05:57:02;;;;;;;18.85;11.98;;;2.10;99.40;;;;;;6185015;23;20001;-83
2022/03/06 05:59:30;;;;;;;20.05;11.65;;;2.10;99.40;;;;;;6184274;23;20493;-84
2022/03/06 06:01:56;;;;;;;20.13;12.00;;;2.00;99.40;;;;;;6184895;23;20013;-84
2022/03/06 06:04:25;;;;;;;19.60;11.93;;;2.00;99.60;;;;;;6160202;23;20016;-84
2022/03/06 06:06:53;;;;;;;20.55;13.23;;;2.00;99.70;;;;;;6185343;23;20029;-84
2022/03/06 06:09:28;;;;;;;20.17;12.65;;;2.00;99.90;;;;;;6186269;23;20005;-83
2022/03/06 06:11:57;;;;;;;19.10;12.07;;;2.00;99.90;;;;;;6186659;23;20001;-84
2022/03/06 06:14:22;;;;;;;19.65;12.10;;;2.00;99.90;;;;;;6184304;23;20005;-84
2022/03/06 06:16:50;;;;;;;18.77;11.93;;;2.00;99.90;;;;;;6184364;23;20008;-84
2022/03/06 06:19:17;;;;;;;19.80;12.27;;;1.90;99.90;;;;;;6183972;23;20021;-85
2022/03/06 06:21:49;;;;;;;20.60;11.88;;;1.90;99.90;;;;;;6184293;23;20033;-84
2022/03/06 06:24:18;;;;;;;20.77;12.80;;;1.90;99.90;;;;;;6160578;23;20446;-84
2022/03/06 06:26:47;;;;;;;21.52;12.82;;;1.90;99.90;;;;;;6185748;23;20072;-84
2022/03/06 06:29:14;;;;;;;21.30;11.65;;;1.90;99.90;;;;;;6184515;23;20324;-84
2022/03/06 06:31:44;;;;;;;21.13;12.13;;;1.90;99.90;;;;;;6184263;23;20044;-84
2022/03/06 06:34:10;;;;;;;18.52;12.45;;;1.90;99.90;;;;;;6184536;23;20044;-82
2022/03/06 06:36:36;;;;;;;19.35;12.35;;;1.90;99.90;;;;;;6184486;23;20009;-83
2022/03/06 06:39:05;;;;;;;17.92;11.85;;;1.90;99.90;;;;;;6183874;23;20001;-84
2022/03/06 06:41:33;;;;;;;19.55;12.20;;;1.80;99.90;;;;;;6184122;23;20336;-83
2022/03/06 06:43:58;;;;;;;21.45;12.60;;;1.90;99.90;;;;;;6183982;23;20602;-83
2022/03/06 06:46:27;;;;;;;19.33;12.80;;;1.80;99.90;;;;;;6159677;23;20028;-83
2022/03/06 06:48:52;;;;;;;21.58;13.63;;;1.90;99.90;;;;;;6184007;23;20009;-83
2022/03/06 06:51:18;;;;;;;19.25;12.23;;;1.80;99.90;;;;;;6159787;23;20016;-84
2022/03/06 06:53:46;;;;;;;20.88;12.77;;;1.80;99.90;;;;;;6183897;23;20008;-84
2022/03/06 06:56:12;;;;;;;19.75;12.38;;;1.80;99.90;;;;;;6135649;23;20009;-84
2022/03/06 06:58:40;;;;;;;19.92;12.27;;;1.80;99.90;;;;;;6184166;23;20503;-84
2022/03/06 07:01:09;;;;;;;20.08;12.85;;;1.80;99.90;;;;;;6184172;23;20001;-84
2022/03/06 07:03:35;;;;;;;21.60;12.35;;;1.80;99.90;;;;;;6184512;23;20377;-84
2022/03/06 07:06:05;;;;;;;21.05;13.75;;;1.80;99.90;;;;;;6183780;23;19997;-84
2022/03/06 07:08:31;;;;;;;21.10;12.80;;;1.80;99.90;;;;;;6159410;23;20012;-84
2022/03/06 07:11:04;;;;;;;22.33;12.88;;;1.80;99.90;;;;;;6183402;23;20013;-84
2022/03/06 07:13:31;;;;;;;18.92;12.40;;;1.80;99.90;;;;;;6159391;23;20009;-84
2022/03/06 07:15:56;;;;;;;21.25;13.55;;;1.80;99.90;;;;;;6183672;23;20040;-84
2022/03/06 07:18:27;;;;;;;18.83;12.75;;;1.80;99.90;;;;;;6183901;23;20009;-84
2022/03/06 07:20:56;;;;;;;19.27;12.80;;;1.90;99.90;;;;;;6159697;23;20017;-84
2022/03/06 07:23:24;;;;;;;20.10;12.63;;;1.90;99.90;;;;;;6159778;23;20033;-84
2022/03/06 07:25:54;;;;;;;20.23;12.85;;;1.90;99.90;;;;;;6158809;23;20424;-84
2022/03/06 07:28:20;;;;;;;19.85;12.18;;;1.90;99.90;;;;;;6184295;23;20089;-84
2022/03/06 07:30:48;;;;;;;19.88;12.93;;;1.90;99.90;;;;;;6183981;23;20362;-85
2022/03/06 07:33:14;;;;;;;18.77;11.40;;;1.90;99.90;;;;;;6135529;23;20009;-84
2022/03/06 07:35:42;;;;;;;17.60;11.55;;;2.00;99.90;;;;;;6183883;23;20007;-84
2022/03/06 07:38:11;;;;;;;16.65;11.30;;;2.00;99.90;;;;;;6183400;23;20001;-84
2022/03/06 07:40:36;;;;;;;18.75;11.65;;;2.10;99.90;;;;;;6183756;23;20118;-84
2022/03/06 07:43:02;;;;;;;17.83;11.50;;;2.00;99.90;;;;;;6183625;23;20005;-84
2022/03/06 07:45:30;;;;;;;19.15;11.48;;;2.10;99.90;;;;;;6183630;23;20031;-84
2022/03/06 07:48:06;;;;;;;;;;;;;;;;;;;;;
2022/03/06 07:50:32;;;;;;;19.00;11.13;;;2.10;99.90;;;;;;6185247;23;20092;-84
2022/03/06 07:52:58;;;;;;;19.30;11.68;;;2.20;99.90;;;;;;6182917;23;20033;-84
2022/03/06 07:55:24;;;;;;;21.58;11.50;;;2.20;99.90;;;;;;6183791;23;20009;-84
2022/03/06 07:57:50;;;;;;;19.40;10.98;;;2.20;99.90;;;;;;6183278;23;20001;-85
2022/03/06 08:00:16;;;;;;;17.33;11.57;;;2.30;99.90;;;;;;6158992;23;20483;-84
2022/03/06 08:02:42;;;;;;;17.08;10.77;;;2.30;99.90;;;;;;6158722;23;20151;-84
2022/03/06 08:05:08;;;;;;;16.05;10.23;;;2.40;99.90;;;;;;6183110;23;20431;-84
2022/03/06 08:07:35;;;;;;;15.38;9.85;;;2.40;99.90;;;;;;6183630;23;20001;-85
2022/03/06 08:10:06;;;;;;;14.40;10.18;;;2.50;99.90;;;;;;6183351;23;20005;-84
2022/03/06 08:12:32;;;;;;;18.30;10.23;;;2.50;99.90;;;;;;6183929;23;19997;-84
2022/03/06 08:14:58;;;;;;;15.30;9.45;;;2.50;99.90;;;;;;6182834;23;20001;-84
2022/03/06 08:17:26;;;;;;;17.15;10.55;;;2.60;99.90;;;;;;6183443;23;20001;-84
2022/03/06 08:19:54;;;;;;;13.90;9.13;;;2.60;99.90;;;;;;6158433;23;20419;-85
2022/03/06 08:22:21;;;;;;;14.35;9.23;;;2.70;99.90;;;;;;6184817;23;20009;-84
2022/03/06 08:24:54;;;;;;;15.70;9.38;;;2.70;99.90;;;;;;6185584;23;20005;-84
2022/03/06 08:27:26;;;;;;;13.85;9.35;;;2.70;99.90;;;;;;6162771;23;20021;-84
2022/03/06 08:29:56;;;;;;;13.60;8.57;;;2.80;99.90;;;;;;6185389;23;20009;-86
2022/03/06 08:32:24;;;;;;;12.52;8.25;;;2.90;99.90;;;;;;6161264;23;20008;-84
2022/03/06 08:35:08;;;;;;;14.20;8.23;;;2.90;99.90;;;;;;6185473;23;19998;-85
2022/03/06 08:37:34;;;;;;;15.43;8.55;;;2.90;99.90;;;;;;6185554;23;20008;-84
2022/03/06 08:40:16;;;;;;;13.15;8.27;;;3.00;99.90;;;;;;6185361;23;20076;-84
2022/03/06 08:42:42;;;;;;;12.82;8.73;;;3.00;99.90;;;;;;6185471;23;20011;-84
2022/03/06 08:45:12;;;;;;;13.68;8.25;;;3.10;99.90;;;;;;6186807;23;20036;-84
2022/03/06 08:47:43;;;;;;;13.48;8.45;;;3.20;99.90;;;;;;6161256;23;20012;-85
2022/03/06 08:50:09;;;;;;;13.07;8.73;;;3.20;99.90;;;;;;6185061;23;20059;-84
2022/03/06 08:53:01;;;;;;;15.75;8.43;;;3.20;99.90;;;;;;6160496;23;20013;-86
2022/03/06 08:55:31;;;;;;;13.27;8.70;;;3.30;99.90;;;;;;6185471;23;20012;-85
2022/03/06 08:57:58;;;;;;;14.57;8.93;;;3.40;99.90;;;;;;6184956;23;20069;-86
2022/03/06 09:00:24;;;;;;;13.50;8.60;;;3.50;99.90;;;;;;6185092;23;20012;-86
2022/03/06 09:02:52;;;;;;;16.67;8.80;;;3.50;99.90;;;;;;6184985;23;20016;-87
2022/03/06 09:05:40;;;;;;;12.90;8.15;;;3.60;99.90;;;;;;6159969;23;20028;-85
2022/03/06 09:08:09;;;;;;;11.82;7.95;;;3.60;99.90;;;;;;6185082;23;20006;-86
2022/03/06 09:10:37;;;;;;;14.18;8.27;;;3.70;99.90;;;;;;6185713;23;20033;-86
2022/03/06 09:13:08;;;;;;;12.48;8.25;;;3.80;99.90;;;;;;6183415;23;20001;-85
2022/03/06 09:15:42;;;;;;;11.98;7.53;;;3.90;99.90;;;;;;6183451;23;20104;-85
2022/03/06 09:18:08;;;;;;;11.23;7.78;;;3.90;99.90;;;;;;6184340;23;20067;-85
2022/03/06 09:20:36;;;;;;;12.10;7.38;;;4.00;99.90;;;;;;6135905;23;20013;-86
2022/03/06 09:23:09;;;;;;;11.95;7.03;;;4.10;99.90;;;;;;6184719;23;20012;-86
2022/03/06 09:25:37;;;;;;;11.13;6.80;;;4.20;99.90;;;;;;6185662;23;20005;-86
2022/03/06 09:28:04;;;;;;;11.45;6.85;;;4.30;99.90;;;;;;6160360;23;20005;-84
2022/03/06 09:30:30;;;;;;;11.90;7.05;;;4.40;99.90;;;;;;6184750;23;20032;-85
2022/03/06 09:32:58;;;;;;;11.02;6.82;;;4.50;99.90;;;;;;6184386;23;20000;-85
2022/03/06 09:35:26;;;;;;;9.23;5.80;;;4.60;99.90;;;;;;6184650;23;20011;-83
2022/03/06 09:37:55;;;;;;;10.57;6.47;;;4.60;99.90;;;;;;6184979;23;20005;-83
2022/03/06 09:40:23;;;;;;;10.23;6.10;;;4.70;99.90;;;;;;6184525;23;20009;-84
2022/03/06 09:42:51;;;;;;;9.27;6.15;;;4.80;99.90;;;;;;6184690;23;20363;-84
2022/03/06 09:45:42;;;;;;;10.20;6.25;;;4.90;99.90;;;;;;6184581;23;20005;-84
2022/03/06 09:48:17;;;;;;;10.13;6.40;;;5.00;99.90;;;;;;6184465;23;20032;-85
2022/03/06 09:50:44;;;;;;;9.38;6.00;;;5.20;99.90;;;;;;6186419;23;20005;-84
2022/03/06 09:53:15;;;;;;;8.43;5.43;;;5.30;99.90;;;;;;6184464;23;20095;-84
2022/03/06 09:55:41;;;;;;;11.43;6.30;;;5.40;99.90;;;;;;6184872;23;20420;-84
2022/03/06 09:58:14;;;;;;;9.77;6.00;;;5.40;99.90;;;;;;6184357;23;20008;-84
2022/03/06 10:00:41;;;;;;;8.23;5.50;;;5.50;99.90;;;;;;6184585;23;20007;-84
2022/03/06 10:03:07;;;;;;;11.35;6.03;;;5.60;99.90;;;;;;6184085;23;20005;-85
2022/03/06 10:05:37;;;;;;;8.70;5.20;;;5.70;99.90;;;;;;6184551;23;20001;-84
2022/03/06 10:08:22;;;;;;;11.10;5.90;;;5.80;99.90;;;;;;6186172;23;20028;-84
2022/03/06 10:10:56;;;;;;;8.60;5.60;;;6.00;99.90;;;;;;6186062;23;20092;-84
2022/03/06 10:13:33;;;;;;;9.40;5.93;;;6.00;99.70;;;;;;6183920;23;20488;-84
2022/03/06 10:16:12;;;;;;;10.95;5.95;;;6.20;99.40;;;;;;6184421;23;20109;-84
2022/03/06 10:18:52;;;;;;;8.25;4.97;;;6.30;99.00;;;;;;6186184;23;20084;-84
2022/03/06 10:21:19;;;;;;;11.38;6.70;;;6.40;98.90;;;;;;6183867;23;20008;-82
2022/03/06 10:23:47;;;;;;;8.15;5.53;;;6.50;98.60;;;;;;6184423;23;20420;-83
2022/03/06 10:26:15;;;;;;;10.65;5.50;;;6.60;97.30;;;;;;6182779;23;20012;-84
2022/03/06 10:28:47;;;;;;;9.38;5.15;;;6.70;96.80;;;;;;6184433;23;20435;-83
2022/03/06 10:31:14;;;;;;;11.07;5.50;;;6.80;96.20;;;;;;6184300;23;20051;-83
2022/03/06 10:33:40;;;;;;;7.88;5.00;;;6.90;96.00;;;;;;6184217;23;20044;-83
2022/03/06 10:36:11;;;;;;;9.65;5.95;;;7.00;95.40;;;;;;6184320;23;20005;-83
2022/03/06 10:38:37;;;;;;;10.02;5.50;;;7.00;94.20;;;;;;6183796;23;20076;-86
2022/03/06 10:41:12;;;;;;;9.68;5.45;;;7.10;93.70;;;;;;6184186;23;20415;-85
2022/03/06 10:43:38;;;;;;;8.73;5.55;;;7.20;93.70;;;;;;6185837;23;20009;-84
2022/03/06 10:46:16;;;;;;;8.95;5.60;;;7.30;93.70;;;;;;6184171;23;20393;-85
2022/03/06 10:49:12;;;;;;;9.88;5.25;;;7.40;93.50;;;;;;6185682;23;20055;-83
2022/03/06 10:51:46;;;;;;;10.48;5.65;;;7.50;93.40;;;;;;6184066;23;20009;-84
2022/03/06 10:54:14;;;;;;;9.00;5.20;;;7.60;93.60;;;;;;6183815;23;20032;-82
2022/03/06 10:56:44;;;;;;;8.02;5.18;;;7.70;92.90;;;;;;6183933;23;20383;-81
2022/03/06 10:59:10;;;;;;;9.25;5.22;;;7.80;93.00;;;;;;6185202;23;20024;-83
2022/03/06 11:01:39;;;;;;;8.35;5.20;;;8.00;92.90;;;;;;6184027;23;20023;-82
2022/03/06 11:04:06;;;;;;;9.02;5.43;;;8.00;92.40;;;;;;6159297;23;20379;-82
2022/03/06 11:06:42;;;;;;;8.55;5.55;;;8.10;92.00;;;;;;6183419;23;20001;-81
2022/03/06 11:09:16;;;;;;;8.95;5.72;;;8.20;91.50;;;;;;6184098;23;20001;-82
2022/03/06 11:11:44;;;;;;;9.18;5.68;;;8.30;91.20;;;;;;6183753;23;20433;-81
2022/03/06 11:14:11;;;;;;;8.55;5.53;;;8.50;90.00;;;;;;6184879;23;20056;-81
2022/03/06 11:16:38;;;;;;;11.52;5.50;;;8.50;89.20;;;;;;6158843;23;20036;-84
2022/03/06 11:19:04;;;;;;;7.70;5.30;;;8.60;88.20;;;;;;6183212;23;20027;-83
2022/03/06 11:21:33;;;;;;;7.28;5.47;;;8.70;87.30;;;;;;6158319;23;20044;-83
2022/03/06 11:24:06;;;;;;;8.85;5.40;;;8.70;87.50;;;;;;6185047;23;20052;-82
2022/03/06 11:27:13;;;;;;;7.10;4.97;;;8.80;86.30;;;;;;6183986;23;20412;-82
2022/03/06 11:29:57;;;;;;;7.07;5.25;;;8.90;85.30;;;;;;6176443;23;20312;-83
2022/03/06 11:32:39;;;;;;;8.40;5.63;;;9.10;84.40;;;;;;6183846;23;20001;-85
2022/03/06 11:35:30;;;;;;;;;;;;;;;;;;;;;
2022/03/06 11:38:05;;;;;;;10.27;6.10;;;9.30;82.30;;;;;;6185134;23;20077;-84
2022/03/06 11:40:38;;;;;;;9.45;6.15;;;9.40;80.70;;;;;;6183473;23;20009;-84
2022/03/06 11:43:05;;;;;;;8.15;5.43;;;9.40;76.50;;;;;;6183812;23;20084;-83
2022/03/06 11:45:48;;;;;;;7.38;5.53;;;9.40;75.70;;;;;;6182846;23;20028;-83
2022/03/06 11:48:35;;;;;;;8.52;5.38;;;9.50;77.90;;;;;;6159856;23;20086;-83
2022/03/06 11:51:22;;;;;;;7.85;5.38;;;9.60;76.60;;;;;;6185376;23;20039;-84
2022/03/06 11:54:05;;;;;;;8.27;5.63;;;9.60;77.60;;;;;;6185337;23;20009;-84
2022/03/06 11:56:34;;;;;;;7.03;5.28;;;9.60;75.60;;;;;;6183179;23;20025;-83
2022/03/06 11:59:04;;;;;;;8.07;6.00;;;9.60;74.70;;;;;;6183616;23;20075;-83
2022/03/06 12:01:45;;;;;;;8.38;5.40;;;9.70;75.20;;;;;;6182988;23;20009;-83
2022/03/06 12:04:16;;;;;;;9.03;5.30;;;9.70;75.10;;;;;;6184035;23;20001;-84
2022/03/06 12:06:59;;;;;;;10.43;5.70;;;9.80;73.80;;;;;;6183558;23;20008;-83
2022/03/06 12:09:30;;;;;;;8.18;5.50;;;9.90;73.30;;;;;;6183047;23;20032;-83
2022/03/06 12:12:01;;;;;;;8.73;5.78;;;10.00;70.70;;;;;;6183643;23;20001;-83
2022/03/06 12:14:35;;;;;;;7.93;5.53;;;10.00;69.80;;;;;;6184886;23;20088;-83
2022/03/06 12:17:11;;;;;;;7.07;5.05;;;10.10;68.90;;;;;;6185057;23;19998;-83
2022/03/06 12:19:43;;;;;;;8.68;6.57;;;10.20;68.60;;;;;;6182747;23;20017;-85
2022/03/06 12:22:10;;;;;;;7.45;5.22;;;10.30;69.90;;;;;;6183496;23;20005;-84
2022/03/06 12:25:19;;;;;;;7.80;5.07;;;10.40;69.60;;;;;;6184831;23;20028;-88
2022/03/06 12:28:40;;;;;;;8.15;5.15;;;10.50;70.20;;;;;;6187428;23;20001;-87
2022/03/06 12:32:26;;;;;;;8.35;5.55;;;10.60;70.10;;;;;;6192463;23;20005;-88
2022/03/06 12:35:25;;;;;;;8.23;4.70;;;10.70;69.60;;;;;;6133830;23;20007;-87
2022/03/06 12:41:24;;;;;;;8.63;5.47;;;10.80;67.30;;;;;;6195238;23;20074;-87
2022/03/06 12:44:09;;;;;;;7.20;5.03;;;10.80;66.60;;;;;;6147181;23;20032;-87
2022/03/06 12:46:48;;;;;;;;;;;;;;;;;;;;;
2022/03/06 12:49:16;;;;;;;8.23;5.40;;;10.90;66.40;;;;;;6194563;23;20036;-88
2022/03/06 12:51:55;;;;;;;7.25;5.30;;;10.90;65.80;;;;;;6186971;23;20428;-88
2022/03/06 12:54:54;;;;;;;;;;;;;;;;;;;;;
2022/03/06 12:57:24;;;;;;;7.72;5.03;;;11.00;65.00;;;;;;6177351;23;20461;-87
2022/03/06 12:59:58;;;;;;;8.10;4.72;;;11.10;65.80;;;;;;6184694;23;20017;-88
2022/03/06 13:02:24;;;;;;;7.97;5.45;;;11.20;65.70;;;;;;6186975;23;20001;-88
2022/03/06 13:05:11;;;;;;;9.63;5.38;;;11.20;62.60;;;;;;6185389;23;19997;-88
2022/03/06 13:10:35;;;;;;;8.05;5.22;;;11.20;62.70;;;;;;6188117;23;20098;-87